sensor_id;sensor_type;location;lat;lon;timestamp;temperature;humidity
75387;DHT22;63966;47.914;22.266;2023-04-16T00:00:18;5.98;93.83
75387;DHT22;63966;47.914;22.266;2023-04-16T00:03:21;5.66;92.32
75387;DHT22;63966;47.914;22.266;2023-04-16T00:06:26;5.41;91.35
75387;DHT22;63966;47.914;22.266;2023-04-16T00:09:30;5.54;93.80
75387;DHT22;63966;47.914;22.266;2023-04-16T00:12:34;5.63;93.86
75387;DHT22;63966;47.914;22.266;2023-04-16T00:15:38;5.69;93.85
75387;DHT22;63966;47.914;22.266;2023-04-16T00:18:42;5.82;93.98
75387;DHT22;63966;47.914;22.266;2023-04-16T00:21:45;5.98;94.22
75387;DHT22;63966;47.914;22.266;2023-04-16T00:24:49;6.27;93.96
75387;DHT22;63966;47.914;22.266;2023-04-16T00:27:52;6.33;93.14
75387;DHT22;63966;47.914;22.266;2023-04-16T00:30:57;6.14;92.29
75387;DHT22;63966;47.914;22.266;2023-04-16T00:34:00;5.96;91.99
75387;DHT22;63966;47.914;22.266;2023-04-16T00:37:04;5.81;92.22
75387;DHT22;63966;47.914;22.266;2023-04-16T00:40:08;5.83;92.87
75387;DHT22;63966;47.914;22.266;2023-04-16T00:43:18;5.90;93.41
75387;DHT22;63966;47.914;22.266;2023-04-16T00:46:23;5.88;93.45
75387;DHT22;63966;47.914;22.266;2023-04-16T00:49:27;5.75;93.08
75387;DHT22;63966;47.914;22.266;2023-04-16T00:52:32;5.45;91.95
75387;DHT22;63966;47.914;22.266;2023-04-16T00:55:37;5.09;90.06
75387;DHT22;63966;47.914;22.266;2023-04-16T00:58:41;4.79;90.01
75387;DHT22;63966;47.914;22.266;2023-04-16T01:01:44;4.62;90.52
75387;DHT22;63966;47.914;22.266;2023-04-16T01:04:48;4.68;92.37
75387;DHT22;63966;47.914;22.266;2023-04-16T01:07:51;4.55;91.68
75387;DHT22;63966;47.914;22.266;2023-04-16T01:10:55;4.64;92.49
75387;DHT22;63966;47.914;22.266;2023-04-16T01:13:58;4.71;93.38
75387;DHT22;63966;47.914;22.266;2023-04-16T01:17:02;4.71;93.40
75387;DHT22;63966;47.914;22.266;2023-04-16T01:20:06;4.77;93.29
75387;DHT22;63966;47.914;22.266;2023-04-16T01:23:10;4.61;92.16
75387;DHT22;63966;47.914;22.266;2023-04-16T01:26:13;4.38;90.97
75387;DHT22;63966;47.914;22.266;2023-04-16T01:29:17;4.71;94.08
75387;DHT22;63966;47.914;22.266;2023-04-16T01:32:21;4.77;94.45
75387;DHT22;63966;47.914;22.266;2023-04-16T01:35:25;4.69;94.08
75387;DHT22;63966;47.914;22.266;2023-04-16T01:38:28;4.69;94.14
75387;DHT22;63966;47.914;22.266;2023-04-16T01:41:32;4.71;94.25
75387;DHT22;63966;47.914;22.266;2023-04-16T01:44:35;4.83;94.93
75387;DHT22;63966;47.914;22.266;2023-04-16T01:47:39;4.66;94.45
75387;DHT22;63966;47.914;22.266;2023-04-16T01:50:43;4.76;95.08
75387;DHT22;63966;47.914;22.266;2023-04-16T01:53:46;4.96;95.58
75387;DHT22;63966;47.914;22.266;2023-04-16T01:56:50;4.92;95.11
75387;DHT22;63966;47.914;22.266;2023-04-16T01:59:53;5.03;95.24
75387;DHT22;63966;47.914;22.266;2023-04-16T02:02:57;5.07;95.01
75387;DHT22;63966;47.914;22.266;2023-04-16T02:06:03;5.09;94.87
75387;DHT22;63966;47.914;22.266;2023-04-16T02:09:06;5.07;94.61
75387;DHT22;63966;47.914;22.266;2023-04-16T02:12:12;5.04;94.52
75387;DHT22;63966;47.914;22.266;2023-04-16T02:15:15;4.99;94.63
75387;DHT22;63966;47.914;22.266;2023-04-16T02:18:19;4.97;94.76
75387;DHT22;63966;47.914;22.266;2023-04-16T02:21:23;5.01;95.16
75387;DHT22;63966;47.914;22.266;2023-04-16T02:24:27;5.04;95.35
75387;DHT22;63966;47.914;22.266;2023-04-16T02:27:31;5.06;95.16
75387;DHT22;63966;47.914;22.266;2023-04-16T02:30:46;5.06;95.04
75387;DHT22;63966;47.914;22.266;2023-04-16T02:33:52;5.06;95.16
75387;DHT22;63966;47.914;22.266;2023-04-16T02:36:55;5.07;95.12
75387;DHT22;63966;47.914;22.266;2023-04-16T02:40:00;5.04;95.25
75387;DHT22;63966;47.914;22.266;2023-04-16T02:43:04;5.03;95.24
75387;DHT22;63966;47.914;22.266;2023-04-16T02:46:08;5.00;95.31
75387;DHT22;63966;47.914;22.266;2023-04-16T02:49:12;4.83;95.12
75387;DHT22;63966;47.914;22.266;2023-04-16T02:52:15;4.64;94.71
75387;DHT22;63966;47.914;22.266;2023-04-16T02:55:18;4.79;95.66
75387;DHT22;63966;47.914;22.266;2023-04-16T02:58:23;4.92;95.68
75387;DHT22;63966;47.914;22.266;2023-04-16T03:01:27;4.93;95.44
75387;DHT22;63966;47.914;22.266;2023-04-16T03:04:32;4.93;95.27
75387;DHT22;63966;47.914;22.266;2023-04-16T03:07:36;4.93;95.43
75387;DHT22;63966;47.914;22.266;2023-04-16T03:10:41;4.94;95.45
75387;DHT22;63966;47.914;22.266;2023-04-16T03:13:44;4.80;95.31
75387;DHT22;63966;47.914;22.266;2023-04-16T03:16:48;4.69;95.17
75387;DHT22;63966;47.914;22.266;2023-04-16T03:19:51;4.71;95.35
75387;DHT22;63966;47.914;22.266;2023-04-16T03:22:54;4.80;95.69
75387;DHT22;63966;47.914;22.266;2023-04-16T03:25:59;4.72;95.53
75387;DHT22;63966;47.914;22.266;2023-04-16T03:29:03;4.80;95.44
75387;DHT22;63966;47.914;22.266;2023-04-16T03:32:08;4.79;95.14
75387;DHT22;63966;47.914;22.266;2023-04-16T03:35:12;4.66;94.92
75387;DHT22;63966;47.914;22.266;2023-04-16T03:38:15;4.69;95.10
75387;DHT22;63966;47.914;22.266;2023-04-16T03:41:18;4.73;95.16
75387;DHT22;63966;47.914;22.266;2023-04-16T03:44:22;4.85;94.97
75387;DHT22;63966;47.914;22.266;2023-04-16T03:47:25;4.97;94.74
75387;DHT22;63966;47.914;22.266;2023-04-16T03:50:33;5.19;94.28
75387;DHT22;63966;47.914;22.266;2023-04-16T03:53:38;5.24;93.62
75387;DHT22;63966;47.914;22.266;2023-04-16T03:56:41;5.65;92.41
75387;DHT22;63966;47.914;22.266;2023-04-16T03:59:45;6.37;90.22
75387;DHT22;63966;47.914;22.266;2023-04-16T04:02:48;7.27;87.36
75387;DHT22;63966;47.914;22.266;2023-04-16T04:05:54;7.95;83.30
75387;DHT22;63966;47.914;22.266;2023-04-16T04:09:03;8.61;80.20
75387;DHT22;63966;47.914;22.266;2023-04-16T04:12:08;9.28;78.28
75387;DHT22;63966;47.914;22.266;2023-04-16T04:15:14;9.86;76.28
75387;DHT22;63966;47.914;22.266;2023-04-16T04:18:17;10.43;73.37
75387;DHT22;63966;47.914;22.266;2023-04-16T04:21:21;11.03;71.11
75387;DHT22;63966;47.914;22.266;2023-04-16T04:24:24;11.45;68.09
75387;DHT22;63966;47.914;22.266;2023-04-16T04:27:29;11.46;67.65
75387;DHT22;63966;47.914;22.266;2023-04-16T04:30:32;11.63;67.79
75387;DHT22;63966;47.914;22.266;2023-04-16T04:33:37;12.14;66.06
75387;DHT22;63966;47.914;22.266;2023-04-16T04:36:41;12.59;64.61
75387;DHT22;63966;47.914;22.266;2023-04-16T04:39:48;12.93;63.58
75387;DHT22;63966;47.914;22.266;2023-04-16T04:42:52;13.09;62.16
75387;DHT22;63966;47.914;22.266;2023-04-16T04:45:58;13.27;61.76
75387;DHT22;63966;47.914;22.266;2023-04-16T04:49:03;13.44;61.31
75387;DHT22;63966;47.914;22.266;2023-04-16T04:52:07;14.04;59.52
75387;DHT22;63966;47.914;22.266;2023-04-16T04:55:11;13.82;59.43
75387;DHT22;63966;47.914;22.266;2023-04-16T04:58:16;13.46;60.10
75387;DHT22;63966;47.914;22.266;2023-04-16T05:01:19;14.05;59.82
75387;DHT22;63966;47.914;22.266;2023-04-16T05:04:23;14.77;57.19
75387;DHT22;63966;47.914;22.266;2023-04-16T05:07:26;14.65;58.10
75387;DHT22;63966;47.914;22.266;2023-04-16T05:10:30;15.09;57.17
75387;DHT22;63966;47.914;22.266;2023-04-16T05:13:36;15.77;55.43
75387;DHT22;63966;47.914;22.266;2023-04-16T05:16:39;16.29;53.14
75387;DHT22;63966;47.914;22.266;2023-04-16T05:19:43;16.30;52.83
75387;DHT22;63966;47.914;22.266;2023-04-16T05:22:47;16.12;52.92
75387;DHT22;63966;47.914;22.266;2023-04-16T05:25:51;16.30;52.31
75387;DHT22;63966;47.914;22.266;2023-04-16T05:28:54;16.08;52.84
75387;DHT22;63966;47.914;22.266;2023-04-16T05:31:58;16.17;52.63
75387;DHT22;63966;47.914;22.266;2023-04-16T05:35:01;16.05;53.06
75387;DHT22;63966;47.914;22.266;2023-04-16T05:38:05;16.45;52.54
75387;DHT22;63966;47.914;22.266;2023-04-16T05:41:08;17.08;51.02
75387;DHT22;63966;47.914;22.266;2023-04-16T05:44:11;18.06;48.90
75387;DHT22;63966;47.914;22.266;2023-04-16T05:47:15;18.73;46.12
75387;DHT22;63966;47.914;22.266;2023-04-16T05:50:19;18.36;46.20
75387;DHT22;63966;47.914;22.266;2023-04-16T05:53:22;18.04;47.38
75387;DHT22;63966;47.914;22.266;2023-04-16T05:56:26;18.40;47.41
75387;DHT22;63966;47.914;22.266;2023-04-16T05:59:30;18.88;45.62
75387;DHT22;63966;47.914;22.266;2023-04-16T06:02:33;19.09;45.06
75387;DHT22;63966;47.914;22.266;2023-04-16T06:05:37;19.49;43.89
75387;DHT22;63966;47.914;22.266;2023-04-16T06:08:41;20.09;43.45
75387;DHT22;63966;47.914;22.266;2023-04-16T06:11:44;19.92;43.55
75387;DHT22;63966;47.914;22.266;2023-04-16T06:14:48;19.72;43.76
75387;DHT22;63966;47.914;22.266;2023-04-16T06:17:51;19.61;43.69
75387;DHT22;63966;47.914;22.266;2023-04-16T06:20:54;19.82;43.90
75387;DHT22;63966;47.914;22.266;2023-04-16T06:23:58;19.92;44.56
75387;DHT22;63966;47.914;22.266;2023-04-16T06:27:01;20.02;44.28
75387;DHT22;63966;47.914;22.266;2023-04-16T06:30:10;20.19;43.21
75387;DHT22;63966;47.914;22.266;2023-04-16T06:33:13;20.12;43.24
75387;DHT22;63966;47.914;22.266;2023-04-16T06:36:16;19.98;44.32
75387;DHT22;63966;47.914;22.266;2023-04-16T06:39:20;20.05;43.23
75387;DHT22;63966;47.914;22.266;2023-04-16T06:42:23;20.60;43.17
75387;DHT22;63966;47.914;22.266;2023-04-16T06:45:27;21.34;41.17
75387;DHT22;63966;47.914;22.266;2023-04-16T06:48:30;21.74;41.13
75387;DHT22;63966;47.914;22.266;2023-04-16T06:51:34;21.53;42.48
75387;DHT22;63966;47.914;22.266;2023-04-16T06:54:38;21.74;39.92
75387;DHT22;63966;47.914;22.266;2023-04-16T06:57:41;21.45;40.53
75387;DHT22;63966;47.914;22.266;2023-04-16T07:00:45;21.52;42.30
75387;DHT22;63966;47.914;22.266;2023-04-16T07:03:48;22.24;39.12
75387;DHT22;63966;47.914;22.266;2023-04-16T07:06:54;22.62;37.33
75387;DHT22;63966;47.914;22.266;2023-04-16T07:09:58;22.37;39.75
75387;DHT22;63966;47.914;22.266;2023-04-16T07:13:02;21.94;37.92
75387;DHT22;63966;47.914;22.266;2023-04-16T07:16:06;21.90;39.26
75387;DHT22;63966;47.914;22.266;2023-04-16T07:19:10;22.08;37.91
75387;DHT22;63966;47.914;22.266;2023-04-16T07:22:14;22.12;38.18
75387;DHT22;63966;47.914;22.266;2023-04-16T07:25:18;22.15;38.76
75387;DHT22;63966;47.914;22.266;2023-04-16T07:28:21;22.95;37.26
75387;DHT22;63966;47.914;22.266;2023-04-16T07:31:24;23.30;35.55
75387;DHT22;63966;47.914;22.266;2023-04-16T07:34:28;23.54;36.21
75387;DHT22;63966;47.914;22.266;2023-04-16T07:37:32;23.47;36.20
75387;DHT22;63966;47.914;22.266;2023-04-16T07:40:36;22.85;37.16
75387;DHT22;63966;47.914;22.266;2023-04-16T07:43:39;23.21;38.30
75387;DHT22;63966;47.914;22.266;2023-04-16T07:46:43;23.75;36.36
75387;DHT22;63966;47.914;22.266;2023-04-16T07:49:49;23.72;36.92
75387;DHT22;63966;47.914;22.266;2023-04-16T07:52:53;23.62;36.62
75387;DHT22;63966;47.914;22.266;2023-04-16T07:55:56;23.83;35.23
75387;DHT22;63966;47.914;22.266;2023-04-16T07:59:00;25.09;33.78
75387;DHT22;63966;47.914;22.266;2023-04-16T08:02:23;25.20;33.65
75387;DHT22;63966;47.914;22.266;2023-04-16T08:05:27;24.75;33.84
75387;DHT22;63966;47.914;22.266;2023-04-16T08:08:31;24.78;33.18
75387;DHT22;63966;47.914;22.266;2023-04-16T08:11:35;24.65;33.07
75387;DHT22;63966;47.914;22.266;2023-04-16T08:14:38;24.22;33.44
75387;DHT22;63966;47.914;22.266;2023-04-16T08:17:43;24.30;34.64
75387;DHT22;63966;47.914;22.266;2023-04-16T08:20:47;24.84;34.90
75387;DHT22;63966;47.914;22.266;2023-04-16T08:23:50;25.08;32.10
75387;DHT22;63966;47.914;22.266;2023-04-16T08:26:54;24.98;33.95
75387;DHT22;63966;47.914;22.266;2023-04-16T08:30:05;24.30;33.84
75387;DHT22;63966;47.914;22.266;2023-04-16T08:33:09;25.01;33.18
75387;DHT22;63966;47.914;22.266;2023-04-16T08:36:12;24.96;32.34
75387;DHT22;63966;47.914;22.266;2023-04-16T08:39:16;24.20;34.57
75387;DHT22;63966;47.914;22.266;2023-04-16T08:42:31;22.99;35.67
75387;DHT22;63966;47.914;22.266;2023-04-16T08:45:36;21.25;38.95
75387;DHT22;63966;47.914;22.266;2023-04-16T08:48:41;20.26;41.99
75387;DHT22;63966;47.914;22.266;2023-04-16T08:51:50;19.47;43.19
75387;DHT22;63966;47.914;22.266;2023-04-16T08:58:02;18.79;46.07
75387;DHT22;63966;47.914;22.266;2023-04-16T09:01:07;18.78;44.65
75387;DHT22;63966;47.914;22.266;2023-04-16T09:04:13;19.19;42.58
75387;DHT22;63966;47.914;22.266;2023-04-16T09:07:19;19.10;45.78
75387;DHT22;63966;47.914;22.266;2023-04-16T09:10:25;19.12;45.32
75387;DHT22;63966;47.914;22.266;2023-04-16T09:13:30;19.26;42.66
75387;DHT22;63966;47.914;22.266;2023-04-16T09:16:34;18.82;43.32
75387;DHT22;63966;47.914;22.266;2023-04-16T09:19:38;18.88;47.15
75387;DHT22;63966;47.914;22.266;2023-04-16T09:22:43;19.02;44.76
75387;DHT22;63966;47.914;22.266;2023-04-16T09:25:47;19.19;43.21
75387;DHT22;63966;47.914;22.266;2023-04-16T09:28:50;18.73;45.32
75387;DHT22;63966;47.914;22.266;2023-04-16T09:32:05;18.92;47.32
75387;DHT22;63966;47.914;22.266;2023-04-16T09:35:09;19.41;42.99
75387;DHT22;63966;47.914;22.266;2023-04-16T09:38:12;19.60;42.90
75387;DHT22;63966;47.914;22.266;2023-04-16T09:41:16;19.54;45.70
75387;DHT22;63966;47.914;22.266;2023-04-16T09:44:20;19.40;43.07
75387;DHT22;63966;47.914;22.266;2023-04-16T09:47:43;19.49;42.49
75387;DHT22;63966;47.914;22.266;2023-04-16T09:50:51;19.23;43.35
75387;DHT22;63966;47.914;22.266;2023-04-16T09:53:56;19.36;44.51
75387;DHT22;63966;47.914;22.266;2023-04-16T09:57:00;19.07;43.01
75387;DHT22;63966;47.914;22.266;2023-04-16T10:00:08;18.99;42.98
75387;DHT22;63966;47.914;22.266;2023-04-16T10:03:12;19.13;42.48
75387;DHT22;63966;47.914;22.266;2023-04-16T10:06:18;19.24;42.16
75387;DHT22;63966;47.914;22.266;2023-04-16T10:09:22;19.34;43.44
75387;DHT22;63966;47.914;22.266;2023-04-16T10:12:25;19.53;46.38
75387;DHT22;63966;47.914;22.266;2023-04-16T10:15:31;19.51;41.54
75387;DHT22;63966;47.914;22.266;2023-04-16T10:18:45;19.88;41.13
75387;DHT22;63966;47.914;22.266;2023-04-16T10:21:49;19.88;42.35
75387;DHT22;63966;47.914;22.266;2023-04-16T10:24:52;19.84;43.65
75387;DHT22;63966;47.914;22.266;2023-04-16T10:27:56;19.85;39.99
75387;DHT22;63966;47.914;22.266;2023-04-16T10:31:07;19.72;41.58
75387;DHT22;63966;47.914;22.266;2023-04-16T10:34:11;19.98;41.51
75387;DHT22;63966;47.914;22.266;2023-04-16T10:37:15;19.88;44.77
75387;DHT22;63966;47.914;22.266;2023-04-16T10:40:22;19.61;40.52
75387;DHT22;63966;47.914;22.266;2023-04-16T10:43:26;19.63;40.02
75387;DHT22;63966;47.914;22.266;2023-04-16T10:46:32;19.89;40.05
75387;DHT22;63966;47.914;22.266;2023-04-16T10:49:36;19.79;39.45
75387;DHT22;63966;47.914;22.266;2023-04-16T10:52:40;19.82;40.72
75387;DHT22;63966;47.914;22.266;2023-04-16T10:59:06;19.88;38.26
75387;DHT22;63966;47.914;22.266;2023-04-16T11:02:16;19.95;38.32
75387;DHT22;63966;47.914;22.266;2023-04-16T11:05:24;20.05;39.43
75387;DHT22;63966;47.914;22.266;2023-04-16T11:08:46;19.89;37.62
75387;DHT22;63966;47.914;22.266;2023-04-16T11:11:57;19.92;39.47
75387;DHT22;63966;47.914;22.266;2023-04-16T11:15:11;20.16;39.88
75387;DHT22;63966;47.914;22.266;2023-04-16T11:18:19;20.26;40.89
75387;DHT22;63966;47.914;22.266;2023-04-16T11:21:23;20.16;40.88
75387;DHT22;63966;47.914;22.266;2023-04-16T11:24:33;20.34;37.14
75387;DHT22;63966;47.914;22.266;2023-04-16T11:27:38;20.56;37.10
75387;DHT22;63966;47.914;22.266;2023-04-16T11:30:41;20.51;39.71
75387;DHT22;63966;47.914;22.266;2023-04-16T11:33:45;20.36;38.02
75387;DHT22;63966;47.914;22.266;2023-04-16T11:36:50;20.30;36.31
75387;DHT22;63966;47.914;22.266;2023-04-16T11:39:54;20.57;37.96
75387;DHT22;63966;47.914;22.266;2023-04-16T11:43:01;20.54;37.19
75387;DHT22;63966;47.914;22.266;2023-04-16T11:46:06;20.34;36.84
75387;DHT22;63966;47.914;22.266;2023-04-16T11:49:29;20.28;37.76
75387;DHT22;63966;47.914;22.266;2023-04-16T11:52:33;20.49;37.29
75387;DHT22;63966;47.914;22.266;2023-04-16T11:55:44;20.46;41.44
75387;DHT22;63966;47.914;22.266;2023-04-16T12:02:09;20.50;36.39
75387;DHT22;63966;47.914;22.266;2023-04-16T12:05:30;20.60;36.37
75387;DHT22;63966;47.914;22.266;2023-04-16T12:08:34;20.46;37.18
75387;DHT22;63966;47.914;22.266;2023-04-16T12:11:38;20.47;37.02
75387;DHT22;63966;47.914;22.266;2023-04-16T12:14:49;20.23;38.67
75387;DHT22;63966;47.914;22.266;2023-04-16T12:18:06;19.92;37.03
75387;DHT22;63966;47.914;22.266;2023-04-16T12:21:10;19.72;37.68
75387;DHT22;63966;47.914;22.266;2023-04-16T12:24:15;19.91;36.87
75387;DHT22;63966;47.914;22.266;2023-04-16T12:27:19;19.91;36.51
75387;DHT22;63966;47.914;22.266;2023-04-16T12:30:25;19.88;37.73
75387;DHT22;63966;47.914;22.266;2023-04-16T12:33:30;19.71;37.48
75387;DHT22;63966;47.914;22.266;2023-04-16T12:36:33;19.79;37.70
75387;DHT22;63966;47.914;22.266;2023-04-16T12:39:37;19.95;38.13
75387;DHT22;63966;47.914;22.266;2023-04-16T12:42:41;20.01;37.87
75387;DHT22;63966;47.914;22.266;2023-04-16T12:45:44;20.02;37.68
75387;DHT22;63966;47.914;22.266;2023-04-16T12:48:48;20.01;38.29
75387;DHT22;63966;47.914;22.266;2023-04-16T12:51:52;19.88;38.50
75387;DHT22;63966;47.914;22.266;2023-04-16T12:54:55;19.98;37.74
75387;DHT22;63966;47.914;22.266;2023-04-16T12:57:59;19.82;38.32
75387;DHT22;63966;47.914;22.266;2023-04-16T13:01:03;19.84;38.43
75387;DHT22;63966;47.914;22.266;2023-04-16T13:04:06;19.68;38.18
75387;DHT22;63966;47.914;22.266;2023-04-16T13:07:10;19.61;38.05
75387;DHT22;63966;47.914;22.266;2023-04-16T13:10:13;19.53;37.95
75387;DHT22;63966;47.914;22.266;2023-04-16T13:13:17;19.68;39.08
75387;DHT22;63966;47.914;22.266;2023-04-16T13:16:20;19.58;38.38
75387;DHT22;63966;47.914;22.266;2023-04-16T13:19:24;19.53;39.30
75387;DHT22;63966;47.914;22.266;2023-04-16T13:22:28;19.49;37.58
75387;DHT22;63966;47.914;22.266;2023-04-16T13:25:31;19.65;38.27
75387;DHT22;63966;47.914;22.266;2023-04-16T13:28:35;19.63;38.39
75387;DHT22;63966;47.914;22.266;2023-04-16T13:31:38;19.63;38.37
75387;DHT22;63966;47.914;22.266;2023-04-16T13:34:42;19.49;37.34
75387;DHT22;63966;47.914;22.266;2023-04-16T13:37:46;19.54;38.77
75387;DHT22;63966;47.914;22.266;2023-04-16T13:40:50;19.31;39.43
75387;DHT22;63966;47.914;22.266;2023-04-16T13:43:53;19.44;40.18
75387;DHT22;63966;47.914;22.266;2023-04-16T13:46:57;19.49;41.27
75387;DHT22;63966;47.914;22.266;2023-04-16T13:50:01;19.31;38.70
75387;DHT22;63966;47.914;22.266;2023-04-16T13:53:05;19.28;38.97
75387;DHT22;63966;47.914;22.266;2023-04-16T13:56:09;19.16;39.12
75387;DHT22;63966;47.914;22.266;2023-04-16T13:59:13;19.06;40.28
75387;DHT22;63966;47.914;22.266;2023-04-16T14:02:19;19.12;41.04
75387;DHT22;63966;47.914;22.266;2023-04-16T14:05:24;19.13;39.78
75387;DHT22;63966;47.914;22.266;2023-04-16T14:08:29;19.13;40.49
75387;DHT22;63966;47.914;22.266;2023-04-16T14:11:33;19.17;40.20
75387;DHT22;63966;47.914;22.266;2023-04-16T14:14:37;19.00;40.25
75387;DHT22;63966;47.914;22.266;2023-04-16T14:17:41;18.85;39.14
75387;DHT22;63966;47.914;22.266;2023-04-16T14:20:46;18.95;40.05
75387;DHT22;63966;47.914;22.266;2023-04-16T14:23:50;18.88;39.36
75387;DHT22;63966;47.914;22.266;2023-04-16T14:26:53;18.78;38.99
75387;DHT22;63966;47.914;22.266;2023-04-16T14:29:57;18.84;38.94
75387;DHT22;63966;47.914;22.266;2023-04-16T14:33:02;18.82;37.92
75387;DHT22;63966;47.914;22.266;2023-04-16T14:36:06;18.78;38.85
75387;DHT22;63966;47.914;22.266;2023-04-16T14:39:10;18.71;38.04
75387;DHT22;63966;47.914;22.266;2023-04-16T14:42:14;18.61;38.55
75387;DHT22;63966;47.914;22.266;2023-04-16T14:45:18;18.61;39.30
75387;DHT22;63966;47.914;22.266;2023-04-16T14:48:21;18.64;40.08
75387;DHT22;63966;47.914;22.266;2023-04-16T14:51:25;18.71;40.87
75387;DHT22;63966;47.914;22.266;2023-04-16T14:54:31;18.73;40.42
75387;DHT22;63966;47.914;22.266;2023-04-16T14:57:35;18.81;38.47
75387;DHT22;63966;47.914;22.266;2023-04-16T15:00:40;18.78;40.02
75387;DHT22;63966;47.914;22.266;2023-04-16T15:03:44;18.76;39.77
75387;DHT22;63966;47.914;22.266;2023-04-16T15:06:48;18.85;40.28
75387;DHT22;63966;47.914;22.266;2023-04-16T15:09:52;18.92;39.66
75387;DHT22;63966;47.914;22.266;2023-04-16T15:12:56;18.89;39.35
75387;DHT22;63966;47.914;22.266;2023-04-16T15:16:00;18.78;40.15
75387;DHT22;63966;47.914;22.266;2023-04-16T15:19:04;18.94;40.84
75387;DHT22;63966;47.914;22.266;2023-04-16T15:22:08;18.88;39.30
75387;DHT22;63966;47.914;22.266;2023-04-16T15:25:12;18.82;40.44
75387;DHT22;63966;47.914;22.266;2023-04-16T15:28:16;18.84;40.54
75387;DHT22;63966;47.914;22.266;2023-04-16T15:31:20;18.84;40.12
75387;DHT22;63966;47.914;22.266;2023-04-16T15:34:25;18.82;39.39
75387;DHT22;63966;47.914;22.266;2023-04-16T15:37:29;18.67;40.71
75387;DHT22;63966;47.914;22.266;2023-04-16T15:40:33;18.59;40.46
75387;DHT22;63966;47.914;22.266;2023-04-16T15:43:37;18.52;40.61
75387;DHT22;63966;47.914;22.266;2023-04-16T15:46:41;18.52;40.44
75387;DHT22;63966;47.914;22.266;2023-04-16T15:49:44;18.45;41.24
75387;DHT22;63966;47.914;22.266;2023-04-16T15:52:48;18.41;40.37
75387;DHT22;63966;47.914;22.266;2023-04-16T15:55:52;18.28;39.78
75387;DHT22;63966;47.914;22.266;2023-04-16T15:58:58;18.18;40.69
75387;DHT22;63966;47.914;22.266;2023-04-16T16:02:01;18.14;40.55
75387;DHT22;63966;47.914;22.266;2023-04-16T16:05:05;18.07;39.88
75387;DHT22;63966;47.914;22.266;2023-04-16T16:08:11;17.99;39.92
75387;DHT22;63966;47.914;22.266;2023-04-16T16:11:16;17.96;39.98
75387;DHT22;63966;47.914;22.266;2023-04-16T16:14:20;17.87;40.17
75387;DHT22;63966;47.914;22.266;2023-04-16T16:17:25;17.86;40.07
75387;DHT22;63966;47.914;22.266;2023-04-16T16:20:29;17.75;40.69
75387;DHT22;63966;47.914;22.266;2023-04-16T16:23:33;17.63;41.57
75387;DHT22;63966;47.914;22.266;2023-04-16T16:26:37;17.56;41.12
75387;DHT22;63966;47.914;22.266;2023-04-16T16:29:40;17.46;41.43
75387;DHT22;63966;47.914;22.266;2023-04-16T16:32:43;17.41;41.52
75387;DHT22;63966;47.914;22.266;2023-04-16T16:35:47;17.30;42.71
75387;DHT22;63966;47.914;22.266;2023-04-16T16:38:51;17.21;42.98
75387;DHT22;63966;47.914;22.266;2023-04-16T16:41:55;17.20;43.53
75387;DHT22;63966;47.914;22.266;2023-04-16T16:44:59;17.14;43.07
75387;DHT22;63966;47.914;22.266;2023-04-16T16:48:07;17.06;43.55
75387;DHT22;63966;47.914;22.266;2023-04-16T16:51:11;17.02;43.46
75387;DHT22;63966;47.914;22.266;2023-04-16T16:54:17;16.88;43.51
75387;DHT22;63966;47.914;22.266;2023-04-16T16:57:20;16.86;43.89
75387;DHT22;63966;47.914;22.266;2023-04-16T17:00:25;16.75;44.07
75387;DHT22;63966;47.914;22.266;2023-04-16T17:03:29;16.65;44.69
75387;DHT22;63966;47.914;22.266;2023-04-16T17:06:33;16.57;44.41
75387;DHT22;63966;47.914;22.266;2023-04-16T17:09:38;16.52;45.22
75387;DHT22;63966;47.914;22.266;2023-04-16T17:12:42;16.45;45.51
75387;DHT22;63966;47.914;22.266;2023-04-16T17:15:47;16.28;46.11
75387;DHT22;63966;47.914;22.266;2023-04-16T17:18:51;16.24;46.07
75387;DHT22;63966;47.914;22.266;2023-04-16T17:21:55;16.14;46.59
75387;DHT22;63966;47.914;22.266;2023-04-16T17:24:59;16.08;46.61
75387;DHT22;63966;47.914;22.266;2023-04-16T17:28:03;16.01;46.89
75387;DHT22;63966;47.914;22.266;2023-04-16T17:31:07;15.91;47.34
75387;DHT22;63966;47.914;22.266;2023-04-16T17:34:11;15.91;47.61
75387;DHT22;63966;47.914;22.266;2023-04-16T17:37:15;15.96;47.78
75387;DHT22;63966;47.914;22.266;2023-04-16T17:40:18;15.89;48.33
75387;DHT22;63966;47.914;22.266;2023-04-16T17:43:22;15.79;48.40
75387;DHT22;63966;47.914;22.266;2023-04-16T17:46:27;15.74;48.77
75387;DHT22;63966;47.914;22.266;2023-04-16T17:49:31;15.59;49.16
75387;DHT22;63966;47.914;22.266;2023-04-16T17:52:35;15.50;49.86
75387;DHT22;63966;47.914;22.266;2023-04-16T17:55:52;15.44;50.23
75387;DHT22;63966;47.914;22.266;2023-04-16T17:58:59;15.33;50.32
75387;DHT22;63966;47.914;22.266;2023-04-16T18:02:04;15.36;50.19
75387;DHT22;63966;47.914;22.266;2023-04-16T18:05:08;15.33;50.64
75387;DHT22;63966;47.914;22.266;2023-04-16T18:08:13;15.36;51.03
75387;DHT22;63966;47.914;22.266;2023-04-16T18:11:17;15.29;50.96
75387;DHT22;63966;47.914;22.266;2023-04-16T18:14:20;15.26;51.27
75387;DHT22;63966;47.914;22.266;2023-04-16T18:17:24;15.28;51.47
75387;DHT22;63966;47.914;22.266;2023-04-16T18:20:28;15.21;51.78
75387;DHT22;63966;47.914;22.266;2023-04-16T18:23:32;15.15;52.04
75387;DHT22;63966;47.914;22.266;2023-04-16T18:26:36;15.02;52.87
75387;DHT22;63966;47.914;22.266;2023-04-16T18:29:40;14.89;52.47
75387;DHT22;63966;47.914;22.266;2023-04-16T18:32:47;14.85;52.46
75387;DHT22;63966;47.914;22.266;2023-04-16T18:36:11;14.78;52.63
75387;DHT22;63966;47.914;22.266;2023-04-16T18:39:14;14.85;52.82
75387;DHT22;63966;47.914;22.266;2023-04-16T18:42:19;15.02;51.92
75387;DHT22;63966;47.914;22.266;2023-04-16T18:45:22;15.19;51.75
75387;DHT22;63966;47.914;22.266;2023-04-16T18:48:26;15.21;51.74
75387;DHT22;63966;47.914;22.266;2023-04-16T18:51:30;15.16;52.30
75387;DHT22;63966;47.914;22.266;2023-04-16T18:54:34;15.09;52.53
75387;DHT22;63966;47.914;22.266;2023-04-16T18:57:39;15.06;52.83
75387;DHT22;63966;47.914;22.266;2023-04-16T19:00:43;15.06;53.02
75387;DHT22;63966;47.914;22.266;2023-04-16T19:03:46;14.92;53.69
75387;DHT22;63966;47.914;22.266;2023-04-16T19:06:50;14.94;53.67
75387;DHT22;63966;47.914;22.266;2023-04-16T19:09:53;14.88;53.83
75387;DHT22;63966;47.914;22.266;2023-04-16T19:12:57;14.87;54.17
75387;DHT22;63966;47.914;22.266;2023-04-16T19:16:01;14.87;54.64
75387;DHT22;63966;47.914;22.266;2023-04-16T19:19:08;14.84;54.69
75387;DHT22;63966;47.914;22.266;2023-04-16T19:22:12;14.84;54.98